createdAt,value
2019-02-15T05:36:07.990Z,0.50
2019-02-15T05:42:17.459Z,0.60
2019-02-15T05:44:46.154Z,0.60
2019-02-15T05:47:14.591Z,0.60
2019-02-15T05:49:43.229Z,0.50
2019-02-15T05:52:11.672Z,0.50
2019-02-15T05:54:40.110Z,0.50
2019-02-15T05:57:09.657Z,0.40
2019-02-15T05:59:38.373Z,0.40
2019-02-15T06:02:06.864Z,0.40
2019-02-15T06:04:35.325Z,0.40
2019-02-15T06:10:44.901Z,0.50
2019-02-15T06:13:13.409Z,0.50
2019-02-15T06:19:11.344Z,0.50
2019-02-15T06:21:39.853Z,0.50
2019-02-15T06:24:08.354Z,0.50
2019-02-15T06:26:36.795Z,0.50
2019-02-15T06:29:05.266Z,0.50
2019-02-15T06:31:33.707Z,0.50
2019-02-15T06:34:02.144Z,0.40
2019-02-15T06:36:32.261Z,0.50
2019-02-15T06:39:00.705Z,0.50
2019-02-15T06:41:29.220Z,0.40
2019-02-15T06:43:58.060Z,0.40
2019-02-15T06:46:26.559Z,0.40
2019-02-15T06:48:55.006Z,0.30
2019-02-15T06:54:28.154Z,0.30
2019-02-15T06:56:56.884Z,0.30
2019-02-15T06:59:36.060Z,0.30
2019-02-15T07:02:12.256Z,0.30
2019-02-15T07:08:21.738Z,0.30
2019-02-15T07:14:31.387Z,0.30
2019-02-15T07:16:59.827Z,0.30
2019-02-15T07:19:28.259Z,0.30
2019-02-15T07:21:56.722Z,0.40
2019-02-15T07:24:25.158Z,0.40
2019-02-15T07:26:53.605Z,0.40
2019-02-15T07:29:22.078Z,0.50
2019-02-15T07:35:31.707Z,0.50
2019-02-15T07:38:00.153Z,0.60
2019-02-15T07:40:28.947Z,0.60
2019-02-15T07:46:26.123Z,0.60
2019-02-15T07:48:54.564Z,0.70
2019-02-15T07:51:23.019Z,0.70
2019-02-15T07:57:08.358Z,0.70
2019-02-15T07:59:36.806Z,0.80
2019-02-15T08:02:05.515Z,0.90
2019-02-15T08:04:33.998Z,0.90
2019-02-15T08:07:02.435Z,0.90
2019-02-15T08:09:30.870Z,0.90
2019-02-15T08:11:59.661Z,0.90
2019-02-15T08:14:28.101Z,0.90
2019-02-15T08:16:56.563Z,0.90
2019-02-15T08:19:25.018Z,1.00
2019-02-15T08:21:53.465Z,1.00
2019-02-15T08:27:51.203Z,1.10
2019-02-15T08:30:19.702Z,1.10
2019-02-15T08:32:48.419Z,1.20
2019-02-15T08:35:16.850Z,1.30
2019-02-15T08:37:45.315Z,1.30
2019-02-15T08:40:13.743Z,1.30
2019-02-15T08:42:42.174Z,1.50
2019-02-15T08:45:13.444Z,1.50
2019-02-15T08:47:41.919Z,1.60
2019-02-15T08:50:11.794Z,1.70
2019-02-15T08:52:40.378Z,1.80
2019-02-15T08:58:25.870Z,1.90
2019-02-15T09:04:35.528Z,2.20
2019-02-15T09:07:04.315Z,2.20
2019-02-15T09:09:32.823Z,2.30
2019-02-15T09:15:29.558Z,2.20
2019-02-15T09:17:58.371Z,2.30
2019-02-15T09:20:26.806Z,2.40
2019-02-15T09:22:55.591Z,2.40
2019-02-15T09:25:24.061Z,2.50
2019-02-15T09:28:10.403Z,2.50
2019-02-15T09:30:38.984Z,2.60
2019-02-15T09:33:07.414Z,2.70
2019-02-15T09:35:35.851Z,2.80
2019-02-15T09:38:04.831Z,2.80
2019-02-15T09:40:33.277Z,2.90
2019-02-15T09:43:01.991Z,3.00
2019-02-15T09:45:30.469Z,3.00
2019-02-15T09:47:58.899Z,3.10
2019-02-15T09:50:27.343Z,3.20
2019-02-15T09:52:55.980Z,3.20
2019-02-15T09:55:24.423Z,3.30
2019-02-15T09:57:52.851Z,3.40
2019-02-15T10:00:21.396Z,3.50
2019-02-15T10:02:50.179Z,3.50
2019-02-15T10:05:19.073Z,3.60
2019-02-15T10:07:48.062Z,3.70
2019-02-15T10:13:57.765Z,3.80
2019-02-15T10:16:29.719Z,3.90
2019-02-15T10:22:25.124Z,4.00
2019-02-15T10:24:53.611Z,4.10
2019-02-15T10:27:22.051Z,4.30
2019-02-15T10:29:50.504Z,4.30
2019-02-15T10:32:19.171Z,4.40
2019-02-15T10:34:47.611Z,4.50
2019-02-15T10:37:16.047Z,4.50
2019-02-15T10:39:44.525Z,4.60
2019-02-15T10:42:12.962Z,4.60
2019-02-15T10:44:41.399Z,4.70
2019-02-15T10:47:14.191Z,4.80
2019-02-15T10:49:40.020Z,4.80
2019-02-15T10:52:09.051Z,5.00
2019-02-15T10:54:37.786Z,5.10
2019-02-15T10:57:06.229Z,5.10
2019-02-15T10:59:34.884Z,5.20
2019-02-15T11:02:03.346Z,5.30
2019-02-15T11:04:31.843Z,5.40
2019-02-15T11:07:00.303Z,5.50
2019-02-15T11:09:28.774Z,5.60
2019-02-15T11:11:57.206Z,5.70
2019-02-15T11:17:55.079Z,5.80
2019-02-15T11:23:52.724Z,5.90
2019-02-15T11:29:50.098Z,6.10
2019-02-15T11:32:18.737Z,6.20
2019-02-15T11:34:47.188Z,6.30
2019-02-15T11:37:15.632Z,6.30
2019-02-15T11:39:44.094Z,6.40
2019-02-15T11:42:12.535Z,6.40
2019-02-15T11:44:41.302Z,6.50
2019-02-15T11:47:09.785Z,6.60
2019-02-15T11:53:19.829Z,6.70
2019-02-15T11:55:48.273Z,6.90
2019-02-15T11:58:16.709Z,6.90
2019-02-15T12:00:45.179Z,7.00
2019-02-15T12:03:13.628Z,7.10
2019-02-15T12:09:11.119Z,7.20
2019-02-15T12:11:39.974Z,7.30
2019-02-15T12:14:08.411Z,7.40
2019-02-15T12:16:38.158Z,7.50
2019-02-15T12:19:07.033Z,7.60
2019-02-15T12:25:19.618Z,7.60
2019-02-15T12:31:29.088Z,7.80
2019-02-15T12:37:38.858Z,7.90
2019-02-15T12:43:48.506Z,8.10
2019-02-15T12:49:58.630Z,8.40
2019-02-15T12:52:27.061Z,8.90
2019-02-15T12:54:55.879Z,9.20
2019-02-15T12:57:24.533Z,9.50
2019-02-15T12:59:53.102Z,9.80
2019-02-15T13:02:21.618Z,9.90
2019-02-15T13:08:18.688Z,10.10
2019-02-15T13:14:15.561Z,9.90
2019-02-15T13:16:44.022Z,9.70
2019-02-15T13:19:12.537Z,9.50
2019-02-15T13:21:41.048Z,9.30
2019-02-15T13:24:09.758Z,9.00
2019-02-15T13:26:38.202Z,8.90
2019-02-15T13:29:06.658Z,8.80
2019-02-15T13:31:35.215Z,8.80
2019-02-15T13:37:45.140Z,8.70
2019-02-15T13:43:54.838Z,8.60
2019-02-15T13:46:23.277Z,8.70
2019-02-15T13:48:51.763Z,8.60
2019-02-15T13:51:20.251Z,8.70
2019-02-15T13:57:31.118Z,8.70
2019-02-15T14:03:40.950Z,8.70
2019-02-15T14:09:50.675Z,8.80
2019-02-15T14:15:48.456Z,8.90
2019-02-15T14:18:16.890Z,9.00
2019-02-15T14:24:14.975Z,9.10
2019-02-15T14:26:43.500Z,9.10
2019-02-15T14:29:11.933Z,9.20
2019-02-15T14:31:40.463Z,9.20
2019-02-15T14:37:38.115Z,9.30
2019-02-15T14:40:12.887Z,9.40
2019-02-15T14:46:22.960Z,9.40
2019-02-15T14:48:51.401Z,9.50
2019-02-15T14:54:23.703Z,9.90
2019-02-15T15:00:20.459Z,10.30
2019-02-15T15:02:49.014Z,10.70
2019-02-15T15:08:58.814Z,11.20
2019-02-15T15:15:16.279Z,11.00
2019-02-15T15:21:25.997Z,11.40
2019-02-15T15:23:54.700Z,11.90
2019-02-15T15:26:23.156Z,12.00
2019-02-15T15:28:52.017Z,12.00
2019-02-15T15:31:21.973Z,12.00
2019-02-15T15:37:20.157Z,11.90
2019-02-15T15:43:17.203Z,12.00
2019-02-15T15:45:45.709Z,11.80
2019-02-15T15:48:22.516Z,11.70
2019-02-15T15:50:44.424Z,11.70
2019-02-15T15:56:17.706Z,11.70
2019-02-15T16:02:15.415Z,11.80
2019-02-15T16:04:43.854Z,11.80
2019-02-15T16:10:41.321Z,12.00
2019-02-15T16:13:10.294Z,12.20
2019-02-15T16:19:20.702Z,12.20
2019-02-15T16:21:49.290Z,12.10
2019-02-15T16:27:46.645Z,12.00
2019-02-15T16:30:16.467Z,11.70
2019-02-15T16:32:45.311Z,11.50
2019-02-15T16:38:42.773Z,10.50
2019-02-15T16:44:41.695Z,9.70
2019-02-15T16:47:10.166Z,9.20
2019-02-15T16:49:38.884Z,8.90
2019-02-15T16:55:36.035Z,8.60
2019-02-15T17:01:33.522Z,8.40
2019-02-15T17:07:30.818Z,8.20
2019-02-15T17:09:59.362Z,8.00
2019-02-15T17:12:28.103Z,7.80
2019-02-15T17:14:56.610Z,7.70
2019-02-15T17:17:25.413Z,7.50
2019-02-15T17:23:35.246Z,7.30
2019-02-15T17:26:03.685Z,7.10
2019-02-15T17:28:32.374Z,7.00
2019-02-15T17:34:29.939Z,6.80
2019-02-15T17:36:58.444Z,6.60
2019-02-15T17:39:27.222Z,6.60
2019-02-15T17:41:55.915Z,6.50
2019-02-15T17:44:24.384Z,6.50
2019-02-15T17:46:52.819Z,6.40
2019-02-15T17:49:21.279Z,6.40
2019-02-15T17:51:49.744Z,6.40
2019-02-15T17:54:18.195Z,6.30
2019-02-15T17:56:46.639Z,6.30
2019-02-15T17:59:15.404Z,6.30
2019-02-15T18:01:44.218Z,6.20
2019-02-15T18:04:12.768Z,6.20
2019-02-15T18:10:09.592Z,6.10
2019-02-15T18:12:38.034Z,6.00
2019-02-15T18:18:35.862Z,5.80
2019-02-15T18:21:04.710Z,5.80
2019-02-15T18:23:33.139Z,5.70
2019-02-15T18:26:01.582Z,5.70
2019-02-15T18:28:30.059Z,5.70
2019-02-15T18:34:16.054Z,5.80
2019-02-15T18:40:25.752Z,5.90
2019-02-15T18:42:54.302Z,5.80
2019-02-15T18:48:51.549Z,5.80
2019-02-15T18:51:20.015Z,5.70
2019-02-15T18:53:48.507Z,5.70
2019-02-15T18:56:17.330Z,5.70
2019-02-15T18:58:45.853Z,5.60
2019-02-15T19:01:14.287Z,5.60
2019-02-15T19:03:43.080Z,5.50
2019-02-15T19:09:39.903Z,5.30
2019-02-15T19:12:08.559Z,5.10
2019-02-15T19:18:18.222Z,4.90
2019-02-15T19:24:27.776Z,4.90
2019-02-15T19:30:37.955Z,4.80
2019-02-15T19:36:23.615Z,4.70
2019-02-15T19:38:52.052Z,4.80
2019-02-15T19:44:48.570Z,4.80
2019-02-15T19:47:17.034Z,4.80
2019-02-15T19:49:45.476Z,4.70
2019-02-15T19:52:14.889Z,4.70
2019-02-15T19:57:48.179Z,4.70
2019-02-15T20:03:45.385Z,4.70
2019-02-15T20:06:14.202Z,4.60
2019-02-15T20:08:42.702Z,4.60
2019-02-15T20:14:40.298Z,4.60
2019-02-15T20:17:08.791Z,4.60
2019-02-15T20:19:37.308Z,4.50
2019-02-15T20:22:05.902Z,4.50
2019-02-15T20:24:34.556Z,4.50
2019-02-15T20:27:03.064Z,4.40
2019-02-15T20:29:31.496Z,4.40
